sensor_id;sensor_type;location;lat;lon;timestamp;temperature;humidity
11617;DHT22;5864;52.998;9.068;2023-02-28T00:02:24;4.30;99.90
11617;DHT22;5864;52.998;9.068;2023-02-28T00:05:11;4.30;99.90
11617;DHT22;5864;52.998;9.068;2023-02-28T00:07:58;5.70;99.90
11617;DHT22;5864;52.998;9.068;2023-02-28T00:10:43;6.50;99.90
11617;DHT22;5864;52.998;9.068;2023-02-28T00:13:30;4.10;99.90
11617;DHT22;5864;52.998;9.068;2023-02-28T00:16:18;4.10;99.90
11617;DHT22;5864;52.998;9.068;2023-02-28T00:19:05;4.10;99.90
11617;DHT22;5864;52.998;9.068;2023-02-28T00:21:52;6.40;99.90
11617;DHT22;5864;52.998;9.068;2023-02-28T00:24:37;4.00;99.90
11617;DHT22;5864;52.998;9.068;2023-02-28T00:27:23;4.00;99.90
11617;DHT22;5864;52.998;9.068;2023-02-28T00:30:11;3.90;99.90
11617;DHT22;5864;52.998;9.068;2023-02-28T00:32:58;3.90;99.90
11617;DHT22;5864;52.998;9.068;2023-02-28T00:35:45;6.20;99.90
11617;DHT22;5864;52.998;9.068;2023-02-28T00:38:31;3.70;99.90
11617;DHT22;5864;52.998;9.068;2023-02-28T00:41:16;3.70;99.90
11617;DHT22;5864;52.998;9.068;2023-02-28T00:44:02;5.50;99.90
11617;DHT22;5864;52.998;9.068;2023-02-28T00:46:49;3.80;99.90
11617;DHT22;5864;52.998;9.068;2023-02-28T00:49:36;3.50;99.90
11617;DHT22;5864;52.998;9.068;2023-02-28T00:52:22;4.20;99.90
11617;DHT22;5864;52.998;9.068;2023-02-28T00:55:08;3.30;99.90
11617;DHT22;5864;52.998;9.068;2023-02-28T00:57:55;3.30;99.90
11617;DHT22;5864;52.998;9.068;2023-02-28T01:00:40;3.40;99.90
11617;DHT22;5864;52.998;9.068;2023-02-28T01:03:26;3.20;99.90
11617;DHT22;5864;52.998;9.068;2023-02-28T01:06:13;3.00;99.90
11617;DHT22;5864;52.998;9.068;2023-02-28T01:08:59;3.00;99.90
11617;DHT22;5864;52.998;9.068;2023-02-28T01:11:45;3.00;99.90
11617;DHT22;5864;52.998;9.068;2023-02-28T01:14:31;2.90;99.90
11617;DHT22;5864;52.998;9.068;2023-02-28T01:17:16;2.80;99.90
11617;DHT22;5864;52.998;9.068;2023-02-28T01:20:01;5.20;99.90
11617;DHT22;5864;52.998;9.068;2023-02-28T01:22:49;2.70;99.90
11617;DHT22;5864;52.998;9.068;2023-02-28T01:25:35;2.70;99.90
11617;DHT22;5864;52.998;9.068;2023-02-28T01:28:21;2.70;99.90
11617;DHT22;5864;52.998;9.068;2023-02-28T01:31:08;2.60;99.90
11617;DHT22;5864;52.998;9.068;2023-02-28T01:33:54;2.40;99.90
11617;DHT22;5864;52.998;9.068;2023-02-28T01:36:40;2.40;99.90
11617;DHT22;5864;52.998;9.068;2023-02-28T01:39:26;2.30;99.90
11617;DHT22;5864;52.998;9.068;2023-02-28T01:42:12;4.80;99.90
11617;DHT22;5864;52.998;9.068;2023-02-28T01:45:06;2.20;99.90
11617;DHT22;5864;52.998;9.068;2023-02-28T01:48:02;2.20;99.90
11617;DHT22;5864;52.998;9.068;2023-02-28T01:50:49;2.20;99.90
11617;DHT22;5864;52.998;9.068;2023-02-28T01:53:39;4.20;99.90
11617;DHT22;5864;52.998;9.068;2023-02-28T01:56:34;2.20;99.90
11617;DHT22;5864;52.998;9.068;2023-02-28T01:59:26;2.20;99.90
11617;DHT22;5864;52.998;9.068;2023-02-28T02:02:13;2.20;99.90
11617;DHT22;5864;52.998;9.068;2023-02-28T02:05:03;2.10;99.90
11617;DHT22;5864;52.998;9.068;2023-02-28T02:07:52;2.20;99.90
11617;DHT22;5864;52.998;9.068;2023-02-28T02:10:41;2.10;99.90
11617;DHT22;5864;52.998;9.068;2023-02-28T02:14:00;2.00;99.90
11617;DHT22;5864;52.998;9.068;2023-02-28T02:17:03;2.00;99.90
11617;DHT22;5864;52.998;9.068;2023-02-28T02:20:13;1.90;99.90
11617;DHT22;5864;52.998;9.068;2023-02-28T02:23:32;1.80;99.90
11617;DHT22;5864;52.998;9.068;2023-02-28T02:26:58;1.70;99.90
11617;DHT22;5864;52.998;9.068;2023-02-28T02:30:17;1.50;99.90
11617;DHT22;5864;52.998;9.068;2023-02-28T02:33:38;1.40;99.90
11617;DHT22;5864;52.998;9.068;2023-02-28T02:36:33;1.50;99.90
11617;DHT22;5864;52.998;9.068;2023-02-28T02:39:27;1.40;99.90
11617;DHT22;5864;52.998;9.068;2023-02-28T02:42:18;1.40;99.90
11617;DHT22;5864;52.998;9.068;2023-02-28T02:45:09;1.40;99.90
11617;DHT22;5864;52.998;9.068;2023-02-28T02:47:58;1.40;99.90
11617;DHT22;5864;52.998;9.068;2023-02-28T02:50:50;1.30;99.90
11617;DHT22;5864;52.998;9.068;2023-02-28T02:53:42;3.70;99.90
11617;DHT22;5864;52.998;9.068;2023-02-28T02:56:31;1.40;99.90
11617;DHT22;5864;52.998;9.068;2023-02-28T02:59:21;1.30;99.90
11617;DHT22;5864;52.998;9.068;2023-02-28T03:02:11;1.20;99.90
11617;DHT22;5864;52.998;9.068;2023-02-28T03:05:00;1.10;99.90
11617;DHT22;5864;52.998;9.068;2023-02-28T03:07:46;1.00;99.90
11617;DHT22;5864;52.998;9.068;2023-02-28T03:10:37;1.00;99.90
11617;DHT22;5864;52.998;9.068;2023-02-28T03:13:59;1.00;99.90
11617;DHT22;5864;52.998;9.068;2023-02-28T03:17:02;1.00;99.90
11617;DHT22;5864;52.998;9.068;2023-02-28T03:19:55;1.10;99.90
11617;DHT22;5864;52.998;9.068;2023-02-28T03:22:50;1.10;99.90
11617;DHT22;5864;52.998;9.068;2023-02-28T03:25:50;1.10;99.90
11617;DHT22;5864;52.998;9.068;2023-02-28T03:28:42;1.30;99.90
11617;DHT22;5864;52.998;9.068;2023-02-28T03:31:32;1.10;99.90
11617;DHT22;5864;52.998;9.068;2023-02-28T03:34:24;1.00;99.90
11617;DHT22;5864;52.998;9.068;2023-02-28T03:37:14;2.20;99.90
11617;DHT22;5864;52.998;9.068;2023-02-28T03:40:06;0.80;99.90
11617;DHT22;5864;52.998;9.068;2023-02-28T03:42:58;0.80;99.90
11617;DHT22;5864;52.998;9.068;2023-02-28T03:45:46;0.90;99.90
11617;DHT22;5864;52.998;9.068;2023-02-28T03:48:38;0.80;99.90
11617;DHT22;5864;52.998;9.068;2023-02-28T03:51:27;0.80;99.90
11617;DHT22;5864;52.998;9.068;2023-02-28T03:54:19;2.60;99.90
11617;DHT22;5864;52.998;9.068;2023-02-28T03:57:12;0.80;99.90
11617;DHT22;5864;52.998;9.068;2023-02-28T04:00:03;0.80;99.90
11617;DHT22;5864;52.998;9.068;2023-02-28T04:02:50;0.60;99.90
11617;DHT22;5864;52.998;9.068;2023-02-28T04:05:46;0.70;99.90
11617;DHT22;5864;52.998;9.068;2023-02-28T04:08:34;0.70;99.90
11617;DHT22;5864;52.998;9.068;2023-02-28T04:11:23;0.70;99.90
11617;DHT22;5864;52.998;9.068;2023-02-28T04:14:09;0.70;99.90
11617;DHT22;5864;52.998;9.068;2023-02-28T04:16:57;0.60;99.90
11617;DHT22;5864;52.998;9.068;2023-02-28T04:19:42;0.50;99.90
11617;DHT22;5864;52.998;9.068;2023-02-28T04:22:28;0.40;99.90
11617;DHT22;5864;52.998;9.068;2023-02-28T04:25:14;0.40;99.90
11617;DHT22;5864;52.998;9.068;2023-02-28T04:27:59;0.30;99.90
11617;DHT22;5864;52.998;9.068;2023-02-28T04:30:45;0.30;99.90
11617;DHT22;5864;52.998;9.068;2023-02-28T04:33:32;0.40;99.90
11617;DHT22;5864;52.998;9.068;2023-02-28T04:36:18;0.40;99.90
11617;DHT22;5864;52.998;9.068;2023-02-28T04:39:04;0.50;99.90
11617;DHT22;5864;52.998;9.068;2023-02-28T04:41:50;0.50;99.90
11617;DHT22;5864;52.998;9.068;2023-02-28T04:44:36;0.50;99.90
11617;DHT22;5864;52.998;9.068;2023-02-28T04:47:21;0.50;99.90
11617;DHT22;5864;52.998;9.068;2023-02-28T04:50:09;0.40;99.90
11617;DHT22;5864;52.998;9.068;2023-02-28T04:52:55;0.40;99.90
11617;DHT22;5864;52.998;9.068;2023-02-28T04:55:41;0.40;99.90
11617;DHT22;5864;52.998;9.068;2023-02-28T04:58:27;0.50;99.90
11617;DHT22;5864;52.998;9.068;2023-02-28T05:01:18;0.40;99.90
11617;DHT22;5864;52.998;9.068;2023-02-28T05:04:04;1.40;99.90
11617;DHT22;5864;52.998;9.068;2023-02-28T05:06:51;0.60;99.90
11617;DHT22;5864;52.998;9.068;2023-02-28T05:09:37;0.60;99.90
11617;DHT22;5864;52.998;9.068;2023-02-28T05:12:23;0.60;99.90
11617;DHT22;5864;52.998;9.068;2023-02-28T05:15:12;0.50;99.90
11617;DHT22;5864;52.998;9.068;2023-02-28T05:17:59;0.40;99.90
11617;DHT22;5864;52.998;9.068;2023-02-28T05:20:44;0.40;99.90
11617;DHT22;5864;52.998;9.068;2023-02-28T05:23:31;0.40;99.90
11617;DHT22;5864;52.998;9.068;2023-02-28T05:26:17;0.40;99.90
11617;DHT22;5864;52.998;9.068;2023-02-28T05:29:03;0.30;99.90
11617;DHT22;5864;52.998;9.068;2023-02-28T05:31:49;0.20;99.90
11617;DHT22;5864;52.998;9.068;2023-02-28T05:34:34;0.20;99.90
11617;DHT22;5864;52.998;9.068;2023-02-28T05:37:20;0.20;99.90
11617;DHT22;5864;52.998;9.068;2023-02-28T05:40:09;0.30;99.90
11617;DHT22;5864;52.998;9.068;2023-02-28T05:42:56;0.20;99.90
11617;DHT22;5864;52.998;9.068;2023-02-28T05:45:41;0.20;99.90
11617;DHT22;5864;52.998;9.068;2023-02-28T05:48:28;0.30;99.90
11617;DHT22;5864;52.998;9.068;2023-02-28T05:51:13;0.60;99.90
11617;DHT22;5864;52.998;9.068;2023-02-28T05:54:01;0.30;99.90
11617;DHT22;5864;52.998;9.068;2023-02-28T05:56:48;0.40;99.90
11617;DHT22;5864;52.998;9.068;2023-02-28T05:59:33;0.40;99.90
11617;DHT22;5864;52.998;9.068;2023-02-28T06:02:24;0.40;99.90
11617;DHT22;5864;52.998;9.068;2023-02-28T06:05:13;0.40;99.90
11617;DHT22;5864;52.998;9.068;2023-02-28T06:07:59;0.40;99.90
11617;DHT22;5864;52.998;9.068;2023-02-28T06:10:46;2.10;99.90
11617;DHT22;5864;52.998;9.068;2023-02-28T06:13:32;0.30;99.90
11617;DHT22;5864;52.998;9.068;2023-02-28T06:16:19;0.30;99.90
11617;DHT22;5864;52.998;9.068;2023-02-28T06:19:05;0.40;99.90
11617;DHT22;5864;52.998;9.068;2023-02-28T06:21:50;0.30;99.90
11617;DHT22;5864;52.998;9.068;2023-02-28T06:24:36;0.40;99.90
11617;DHT22;5864;52.998;9.068;2023-02-28T06:27:22;0.50;99.90
11617;DHT22;5864;52.998;9.068;2023-02-28T06:30:10;0.40;99.90
11617;DHT22;5864;52.998;9.068;2023-02-28T06:32:56;0.40;99.90
11617;DHT22;5864;52.998;9.068;2023-02-28T06:35:43;0.40;99.90
11617;DHT22;5864;52.998;9.068;2023-02-28T06:38:29;0.40;99.90
11617;DHT22;5864;52.998;9.068;2023-02-28T06:41:15;0.30;99.90
11617;DHT22;5864;52.998;9.068;2023-02-28T06:44:00;0.30;99.90
11617;DHT22;5864;52.998;9.068;2023-02-28T06:46:47;0.30;99.90
11617;DHT22;5864;52.998;9.068;2023-02-28T06:49:34;0.40;99.90
11617;DHT22;5864;52.998;9.068;2023-02-28T06:52:20;0.40;99.90
11617;DHT22;5864;52.998;9.068;2023-02-28T06:55:07;0.50;99.90
11617;DHT22;5864;52.998;9.068;2023-02-28T06:57:53;0.60;99.90
11617;DHT22;5864;52.998;9.068;2023-02-28T07:00:39;0.60;99.90
11617;DHT22;5864;52.998;9.068;2023-02-28T07:03:26;0.60;99.90
11617;DHT22;5864;52.998;9.068;2023-02-28T07:06:11;0.70;99.90
11617;DHT22;5864;52.998;9.068;2023-02-28T07:08:56;0.70;99.90
11617;DHT22;5864;52.998;9.068;2023-02-28T07:11:42;0.80;99.90
11617;DHT22;5864;52.998;9.068;2023-02-28T07:14:27;0.90;99.90
11617;DHT22;5864;52.998;9.068;2023-02-28T07:17:13;0.90;99.90
11617;DHT22;5864;52.998;9.068;2023-02-28T07:20:00;1.00;99.90
11617;DHT22;5864;52.998;9.068;2023-02-28T07:22:48;0.90;99.90
11617;DHT22;5864;52.998;9.068;2023-02-28T07:25:40;1.00;99.90
11617;DHT22;5864;52.998;9.068;2023-02-28T07:28:26;1.10;99.90
11617;DHT22;5864;52.998;9.068;2023-02-28T07:31:13;1.30;99.90
11617;DHT22;5864;52.998;9.068;2023-02-28T07:33:59;2.50;99.90
11617;DHT22;5864;52.998;9.068;2023-02-28T07:36:46;4.90;99.90
11617;DHT22;5864;52.998;9.068;2023-02-28T07:39:32;4.10;99.90
11617;DHT22;5864;52.998;9.068;2023-02-28T07:42:17;4.30;99.90
11617;DHT22;5864;52.998;9.068;2023-02-28T07:45:04;5.30;99.90
11617;DHT22;5864;52.998;9.068;2023-02-28T07:47:50;7.00;98.50
11617;DHT22;5864;52.998;9.068;2023-02-28T07:50:36;10.20;84.60
11617;DHT22;5864;52.998;9.068;2023-02-28T07:53:23;10.20;66.90
11617;DHT22;5864;52.998;9.068;2023-02-28T07:56:10;11.70;57.40
11617;DHT22;5864;52.998;9.068;2023-02-28T07:58:55;12.60;50.10
11617;DHT22;5864;52.998;9.068;2023-02-28T08:01:41;13.30;44.40
11617;DHT22;5864;52.998;9.068;2023-02-28T08:04:31;13.80;41.30
11617;DHT22;5864;52.998;9.068;2023-02-28T08:07:17;14.30;37.10
11617;DHT22;5864;52.998;9.068;2023-02-28T08:10:05;14.50;35.60
11617;DHT22;5864;52.998;9.068;2023-02-28T08:12:51;14.90;36.20
11617;DHT22;5864;52.998;9.068;2023-02-28T08:15:37;15.90;31.90
11617;DHT22;5864;52.998;9.068;2023-02-28T08:18:22;16.80;28.70
11617;DHT22;5864;52.998;9.068;2023-02-28T08:21:08;17.90;24.00
11617;DHT22;5864;52.998;9.068;2023-02-28T08:23:54;18.10;22.40
11617;DHT22;5864;52.998;9.068;2023-02-28T08:26:42;18.00;22.00
11617;DHT22;5864;52.998;9.068;2023-02-28T08:29:29;18.70;20.40
11617;DHT22;5864;52.998;9.068;2023-02-28T08:32:14;19.60;16.60
11617;DHT22;5864;52.998;9.068;2023-02-28T08:35:01;19.70;14.80
11617;DHT22;5864;52.998;9.068;2023-02-28T08:37:47;20.20;12.40
11617;DHT22;5864;52.998;9.068;2023-02-28T08:40:33;20.30;12.20
11617;DHT22;5864;52.998;9.068;2023-02-28T08:43:20;20.90;7.50
11617;DHT22;5864;52.998;9.068;2023-02-28T08:46:06;20.60;7.30
11617;DHT22;5864;52.998;9.068;2023-02-28T08:48:52;20.70;7.80
11617;DHT22;5864;52.998;9.068;2023-02-28T08:51:39;20.60;5.00
11617;DHT22;5864;52.998;9.068;2023-02-28T08:54:25;20.80;3.60
11617;DHT22;5864;52.998;9.068;2023-02-28T08:57:13;21.40;2.20
11617;DHT22;5864;52.998;9.068;2023-02-28T09:00:00;21.20;1.10
11617;DHT22;5864;52.998;9.068;2023-02-28T09:02:48;21.30;1.80
11617;DHT22;5864;52.998;9.068;2023-02-28T09:05:34;21.00;1.00
11617;DHT22;5864;52.998;9.068;2023-02-28T09:08:20;21.20;1.00
11617;DHT22;5864;52.998;9.068;2023-02-28T09:11:06;21.50;1.00
11617;DHT22;5864;52.998;9.068;2023-02-28T09:13:51;21.70;1.00
11617;DHT22;5864;52.998;9.068;2023-02-28T09:16:38;21.30;1.00
11617;DHT22;5864;52.998;9.068;2023-02-28T09:19:25;21.10;1.00
11617;DHT22;5864;52.998;9.068;2023-02-28T09:22:10;21.40;1.00
11617;DHT22;5864;52.998;9.068;2023-02-28T09:24:56;21.80;1.00
11617;DHT22;5864;52.998;9.068;2023-02-28T09:27:42;22.00;1.00
11617;DHT22;5864;52.998;9.068;2023-02-28T09:30:27;21.70;1.00
11617;DHT22;5864;52.998;9.068;2023-02-28T09:33:17;21.80;1.00
11617;DHT22;5864;52.998;9.068;2023-02-28T09:36:05;21.80;1.00
11617;DHT22;5864;52.998;9.068;2023-02-28T09:38:50;22.20;1.00
11617;DHT22;5864;52.998;9.068;2023-02-28T09:41:39;21.70;1.00
11617;DHT22;5864;52.998;9.068;2023-02-28T09:44:35;21.30;1.00
11617;DHT22;5864;52.998;9.068;2023-02-28T09:47:31;21.00;1.00
11617;DHT22;5864;52.998;9.068;2023-02-28T09:50:28;20.30;1.00
11617;DHT22;5864;52.998;9.068;2023-02-28T09:53:21;20.70;1.00
11617;DHT22;5864;52.998;9.068;2023-02-28T09:56:10;20.70;1.00
11617;DHT22;5864;52.998;9.068;2023-02-28T09:58:59;20.00;1.00
11617;DHT22;5864;52.998;9.068;2023-02-28T10:01:54;20.10;1.00
11617;DHT22;5864;52.998;9.068;2023-02-28T10:04:44;19.10;1.00
11617;DHT22;5864;52.998;9.068;2023-02-28T10:07:56;19.10;1.00
11617;DHT22;5864;52.998;9.068;2023-02-28T10:10:45;18.50;1.00
11617;DHT22;5864;52.998;9.068;2023-02-28T10:13:35;17.10;1.00
11617;DHT22;5864;52.998;9.068;2023-02-28T10:16:25;17.80;1.00
11617;DHT22;5864;52.998;9.068;2023-02-28T10:19:15;17.40;1.00
11617;DHT22;5864;52.998;9.068;2023-02-28T10:22:04;17.40;1.00
11617;DHT22;5864;52.998;9.068;2023-02-28T10:24:55;16.80;1.00
11617;DHT22;5864;52.998;9.068;2023-02-28T10:27:45;16.70;1.00
11617;DHT22;5864;52.998;9.068;2023-02-28T10:30:31;16.70;1.00
11617;DHT22;5864;52.998;9.068;2023-02-28T10:33:22;16.20;1.00
11617;DHT22;5864;52.998;9.068;2023-02-28T10:36:13;15.40;1.00
11617;DHT22;5864;52.998;9.068;2023-02-28T10:39:00;15.80;1.00
11617;DHT22;5864;52.998;9.068;2023-02-28T10:41:47;16.60;1.00
11617;DHT22;5864;52.998;9.068;2023-02-28T10:44:33;15.80;1.00
11617;DHT22;5864;52.998;9.068;2023-02-28T10:47:19;15.30;1.00
11617;DHT22;5864;52.998;9.068;2023-02-28T10:50:05;14.90;1.00
11617;DHT22;5864;52.998;9.068;2023-02-28T10:52:51;14.60;1.00
11617;DHT22;5864;52.998;9.068;2023-02-28T10:55:38;14.50;1.00
11617;DHT22;5864;52.998;9.068;2023-02-28T10:58:26;14.60;1.00
11617;DHT22;5864;52.998;9.068;2023-02-28T11:01:14;13.30;1.00
11617;DHT22;5864;52.998;9.068;2023-02-28T11:04:00;12.70;1.00
11617;DHT22;5864;52.998;9.068;2023-02-28T11:06:46;12.60;1.00
11617;DHT22;5864;52.998;9.068;2023-02-28T11:09:34;12.00;1.00
11617;DHT22;5864;52.998;9.068;2023-02-28T11:12:22;12.40;1.00
11617;DHT22;5864;52.998;9.068;2023-02-28T11:15:22;13.00;1.00
11617;DHT22;5864;52.998;9.068;2023-02-28T11:18:21;13.00;1.00
11617;DHT22;5864;52.998;9.068;2023-02-28T11:21:09;12.80;1.00
11617;DHT22;5864;52.998;9.068;2023-02-28T11:24:01;13.50;1.00
11617;DHT22;5864;52.998;9.068;2023-02-28T11:26:48;14.10;1.00
11617;DHT22;5864;52.998;9.068;2023-02-28T11:29:34;13.30;1.00
11617;DHT22;5864;52.998;9.068;2023-02-28T11:32:30;13.40;1.00
11617;DHT22;5864;52.998;9.068;2023-02-28T11:35:23;13.60;1.00
11617;DHT22;5864;52.998;9.068;2023-02-28T11:38:12;12.60;1.00
11617;DHT22;5864;52.998;9.068;2023-02-28T11:41:19;12.40;1.00
11617;DHT22;5864;52.998;9.068;2023-02-28T11:44:22;11.60;1.00
11617;DHT22;5864;52.998;9.068;2023-02-28T11:47:13;11.60;1.00
11617;DHT22;5864;52.998;9.068;2023-02-28T11:50:16;11.90;1.00
11617;DHT22;5864;52.998;9.068;2023-02-28T11:53:14;11.70;1.00
11617;DHT22;5864;52.998;9.068;2023-02-28T11:56:05;11.60;1.00
11617;DHT22;5864;52.998;9.068;2023-02-28T11:59:02;12.00;1.00
11617;DHT22;5864;52.998;9.068;2023-02-28T12:02:17;11.50;1.00
11617;DHT22;5864;52.998;9.068;2023-02-28T12:05:20;12.40;1.00
11617;DHT22;5864;52.998;9.068;2023-02-28T12:08:20;11.60;1.00
11617;DHT22;5864;52.998;9.068;2023-02-28T12:11:13;11.40;1.00
11617;DHT22;5864;52.998;9.068;2023-02-28T12:14:16;10.70;1.00
11617;DHT22;5864;52.998;9.068;2023-02-28T12:17:15;11.40;1.00
11617;DHT22;5864;52.998;9.068;2023-02-28T12:20:12;11.60;1.00
11617;DHT22;5864;52.998;9.068;2023-02-28T12:23:19;10.50;1.00
11617;DHT22;5864;52.998;9.068;2023-02-28T12:26:14;9.80;1.00
11617;DHT22;5864;52.998;9.068;2023-02-28T12:29:07;9.90;1.00
11617;DHT22;5864;52.998;9.068;2023-02-28T12:31:58;10.10;1.00
11617;DHT22;5864;52.998;9.068;2023-02-28T12:34:47;10.70;1.00
11617;DHT22;5864;52.998;9.068;2023-02-28T12:37:38;11.20;1.00
11617;DHT22;5864;52.998;9.068;2023-02-28T12:40:33;12.90;1.00
11617;DHT22;5864;52.998;9.068;2023-02-28T12:43:30;11.40;1.00
11617;DHT22;5864;52.998;9.068;2023-02-28T12:46:22;10.80;1.00
11617;DHT22;5864;52.998;9.068;2023-02-28T12:49:12;11.00;1.00
11617;DHT22;5864;52.998;9.068;2023-02-28T12:52:02;10.80;1.00
11617;DHT22;5864;52.998;9.068;2023-02-28T12:54:53;10.00;1.00
11617;DHT22;5864;52.998;9.068;2023-02-28T12:57:48;10.00;1.00
11617;DHT22;5864;52.998;9.068;2023-02-28T13:00:42;9.40;1.00
11617;DHT22;5864;52.998;9.068;2023-02-28T13:03:45;9.60;1.00
11617;DHT22;5864;52.998;9.068;2023-02-28T13:06:51;9.70;1.00
11617;DHT22;5864;52.998;9.068;2023-02-28T13:09:41;9.30;1.00
11617;DHT22;5864;52.998;9.068;2023-02-28T13:12:48;9.50;1.00
11617;DHT22;5864;52.998;9.068;2023-02-28T13:15:33;9.80;1.00
11617;DHT22;5864;52.998;9.068;2023-02-28T13:18:30;11.10;1.00
11617;DHT22;5864;52.998;9.068;2023-02-28T13:21:23;9.70;1.00
11617;DHT22;5864;52.998;9.068;2023-02-28T13:24:09;11.80;1.20
11617;DHT22;5864;52.998;9.068;2023-02-28T13:34:15;9.30;1.00
11617;DHT22;5864;52.998;9.068;2023-02-28T13:37:35;9.60;1.60
11617;DHT22;5864;52.998;9.068;2023-02-28T13:40:31;9.70;1.00
11617;DHT22;5864;52.998;9.068;2023-02-28T13:43:24;9.80;1.00
11617;DHT22;5864;52.998;9.068;2023-02-28T13:46:30;10.00;1.00
11617;DHT22;5864;52.998;9.068;2023-02-28T13:49:23;9.80;3.30
11617;DHT22;5864;52.998;9.068;2023-02-28T13:52:14;9.70;3.60
11617;DHT22;5864;52.998;9.068;2023-02-28T13:55:25;10.10;1.00
11617;DHT22;5864;52.998;9.068;2023-02-28T13:58:26;10.40;2.90
11617;DHT22;5864;52.998;9.068;2023-02-28T14:01:42;10.30;1.00
11617;DHT22;5864;52.998;9.068;2023-02-28T14:04:53;10.40;1.00
11617;DHT22;5864;52.998;9.068;2023-02-28T14:07:46;10.40;1.00
11617;DHT22;5864;52.998;9.068;2023-02-28T14:10:37;10.20;1.50
11617;DHT22;5864;52.998;9.068;2023-02-28T14:13:39;9.80;2.30
11617;DHT22;5864;52.998;9.068;2023-02-28T14:16:37;9.70;3.30
11617;DHT22;5864;52.998;9.068;2023-02-28T14:19:27;9.60;1.00
11617;DHT22;5864;52.998;9.068;2023-02-28T14:22:32;9.30;1.60
11617;DHT22;5864;52.998;9.068;2023-02-28T14:25:32;9.00;1.50
11617;DHT22;5864;52.998;9.068;2023-02-28T14:28:28;9.20;3.70
11617;DHT22;5864;52.998;9.068;2023-02-28T14:31:24;9.70;3.80
11617;DHT22;5864;52.998;9.068;2023-02-28T14:34:25;9.10;5.50
11617;DHT22;5864;52.998;9.068;2023-02-28T14:37:20;9.20;4.10
11617;DHT22;5864;52.998;9.068;2023-02-28T14:40:15;9.00;2.90
11617;DHT22;5864;52.998;9.068;2023-02-28T14:43:02;9.00;3.80
11617;DHT22;5864;52.998;9.068;2023-02-28T14:45:50;9.20;3.60
11617;DHT22;5864;52.998;9.068;2023-02-28T14:48:37;9.60;3.80
11617;DHT22;5864;52.998;9.068;2023-02-28T14:51:24;9.70;1.20
11617;DHT22;5864;52.998;9.068;2023-02-28T14:54:15;9.70;3.60
11617;DHT22;5864;52.998;9.068;2023-02-28T14:57:01;9.60;3.40
11617;DHT22;5864;52.998;9.068;2023-02-28T14:59:46;9.10;4.00
11617;DHT22;5864;52.998;9.068;2023-02-28T15:02:34;8.90;3.70
11617;DHT22;5864;52.998;9.068;2023-02-28T15:05:24;10.00;4.90
11617;DHT22;5864;52.998;9.068;2023-02-28T15:08:12;8.80;4.10
11617;DHT22;5864;52.998;9.068;2023-02-28T15:11:03;9.30;5.50
11617;DHT22;5864;52.998;9.068;2023-02-28T15:13:51;9.40;3.80
11617;DHT22;5864;52.998;9.068;2023-02-28T15:16:41;9.00;3.60
11617;DHT22;5864;52.998;9.068;2023-02-28T15:19:29;8.80;3.60
11617;DHT22;5864;52.998;9.068;2023-02-28T15:22:18;8.50;6.50
11617;DHT22;5864;52.998;9.068;2023-02-28T15:25:07;10.20;5.00
11617;DHT22;5864;52.998;9.068;2023-02-28T15:27:56;9.00;4.50
11617;DHT22;5864;52.998;9.068;2023-02-28T15:30:51;9.10;4.00
11617;DHT22;5864;52.998;9.068;2023-02-28T15:33:37;8.80;6.20
11617;DHT22;5864;52.998;9.068;2023-02-28T15:36:25;8.80;6.00
11617;DHT22;5864;52.998;9.068;2023-02-28T15:39:19;8.60;6.20
11617;DHT22;5864;52.998;9.068;2023-02-28T15:42:11;8.70;5.20
11617;DHT22;5864;52.998;9.068;2023-02-28T15:44:59;8.50;7.10
11617;DHT22;5864;52.998;9.068;2023-02-28T15:47:45;9.70;8.60
11617;DHT22;5864;52.998;9.068;2023-02-28T15:50:31;8.60;8.10
11617;DHT22;5864;52.998;9.068;2023-02-28T15:53:21;8.60;8.20
11617;DHT22;5864;52.998;9.068;2023-02-28T15:56:23;8.30;8.00
11617;DHT22;5864;52.998;9.068;2023-02-28T15:59:15;11.00;9.30
11617;DHT22;5864;52.998;9.068;2023-02-28T16:02:15;8.00;9.70
11617;DHT22;5864;52.998;9.068;2023-02-28T16:05:19;7.90;9.50
11617;DHT22;5864;52.998;9.068;2023-02-28T16:08:14;10.50;10.20
11617;DHT22;5864;52.998;9.068;2023-02-28T16:11:00;8.00;11.00
11617;DHT22;5864;52.998;9.068;2023-02-28T16:13:46;9.70;10.90
11617;DHT22;5864;52.998;9.068;2023-02-28T16:16:32;7.90;11.40
11617;DHT22;5864;52.998;9.068;2023-02-28T16:19:20;7.70;10.80
11617;DHT22;5864;52.998;9.068;2023-02-28T16:22:08;7.60;10.70
11617;DHT22;5864;52.998;9.068;2023-02-28T16:24:54;7.50;11.00
11617;DHT22;5864;52.998;9.068;2023-02-28T16:27:40;7.50;12.10
11617;DHT22;5864;52.998;9.068;2023-02-28T16:30:28;7.50;11.80
11617;DHT22;5864;52.998;9.068;2023-02-28T16:33:15;7.50;12.30
11617;DHT22;5864;52.998;9.068;2023-02-28T16:36:05;7.60;13.60
11617;DHT22;5864;52.998;9.068;2023-02-28T16:38:51;7.80;13.60
11617;DHT22;5864;52.998;9.068;2023-02-28T16:41:37;7.80;13.30
11617;DHT22;5864;52.998;9.068;2023-02-28T16:44:27;7.80;14.20
11617;DHT22;5864;52.998;9.068;2023-02-28T16:47:13;9.60;15.30
11617;DHT22;5864;52.998;9.068;2023-02-28T16:49:58;9.70;15.60
11617;DHT22;5864;52.998;9.068;2023-02-28T16:52:45;7.70;14.50
11617;DHT22;5864;52.998;9.068;2023-02-28T16:55:32;7.70;15.20
11617;DHT22;5864;52.998;9.068;2023-02-28T16:58:17;8.80;16.20
11617;DHT22;5864;52.998;9.068;2023-02-28T17:01:05;7.60;15.80
11617;DHT22;5864;52.998;9.068;2023-02-28T17:03:51;9.10;17.60
11617;DHT22;5864;52.998;9.068;2023-02-28T17:06:36;8.60;18.10
11617;DHT22;5864;52.998;9.068;2023-02-28T17:09:24;9.00;18.60
11617;DHT22;5864;52.998;9.068;2023-02-28T17:12:10;8.20;19.40
11617;DHT22;5864;52.998;9.068;2023-02-28T17:14:56;7.20;19.90
11617;DHT22;5864;52.998;9.068;2023-02-28T17:17:43;8.70;21.40
11617;DHT22;5864;52.998;9.068;2023-02-28T17:20:30;7.00;21.40
11617;DHT22;5864;52.998;9.068;2023-02-28T17:23:16;8.00;23.00
11617;DHT22;5864;52.998;9.068;2023-02-28T17:26:03;6.90;23.50
11617;DHT22;5864;52.998;9.068;2023-02-28T17:28:51;6.80;23.90
11617;DHT22;5864;52.998;9.068;2023-02-28T17:31:38;7.10;25.70
11617;DHT22;5864;52.998;9.068;2023-02-28T17:34:23;6.80;27.40
11617;DHT22;5864;52.998;9.068;2023-02-28T17:37:09;6.50;28.00
11617;DHT22;5864;52.998;9.068;2023-02-28T17:39:55;6.50;29.30
11617;DHT22;5864;52.998;9.068;2023-02-28T17:42:42;6.40;30.70
11617;DHT22;5864;52.998;9.068;2023-02-28T17:45:28;6.20;32.40
11617;DHT22;5864;52.998;9.068;2023-02-28T17:48:14;8.80;35.30
11617;DHT22;5864;52.998;9.068;2023-02-28T17:51:00;6.30;35.30
11617;DHT22;5864;52.998;9.068;2023-02-28T17:53:46;5.90;36.90
11617;DHT22;5864;52.998;9.068;2023-02-28T17:56:32;5.80;39.70
11617;DHT22;5864;52.998;9.068;2023-02-28T17:59:19;7.80;43.30
11617;DHT22;5864;52.998;9.068;2023-02-28T18:02:05;6.00;43.60
11617;DHT22;5864;52.998;9.068;2023-02-28T18:04:50;5.60;44.30
11617;DHT22;5864;52.998;9.068;2023-02-28T18:07:37;7.90;49.90
11617;DHT22;5864;52.998;9.068;2023-02-28T18:10:22;5.60;50.50
11617;DHT22;5864;52.998;9.068;2023-02-28T18:13:08;7.20;52.60
11617;DHT22;5864;52.998;9.068;2023-02-28T18:15:58;3.40;50.00
11617;DHT22;5864;52.998;9.068;2023-02-28T18:18:44;8.20;53.30
11617;DHT22;5864;52.998;9.068;2023-02-28T18:21:30;5.20;52.50
11617;DHT22;5864;52.998;9.068;2023-02-28T18:24:20;7.40;54.60
11617;DHT22;5864;52.998;9.068;2023-02-28T18:27:05;5.20;53.00
11617;DHT22;5864;52.998;9.068;2023-02-28T18:29:52;6.40;53.40
11617;DHT22;5864;52.998;9.068;2023-02-28T18:32:39;6.90;54.70
11617;DHT22;5864;52.998;9.068;2023-02-28T18:35:26;5.20;53.70
11617;DHT22;5864;52.998;9.068;2023-02-28T18:38:21;5.20;53.90